Time;durP1;ratioP1;P1;durP2;ratioP2;P2;SDS_P1;SDS_P2;PMS_P1;PMS_P2;Temp;Humidity;BMP_temperature;BMP_pressure;BME280_temperature;BME280_humidity;BME280_pressure;Samples;Min_cycle;Max_cycle;Signal;HPM_P1;HPM_P2
2022/01/03 00:00:05;;;;;;;31.10;4.43;;;;;;;12.94;73.44;101362.88;5093983;28;20063;-66
2022/01/03 00:02:33;;;;;;;25.30;5.05;;;;;;;12.99;73.28;101362.75;5093287;28;20380;-66
2022/01/03 00:05:00;;;;;;;30.08;3.85;;;;;;;12.96;73.29;101355.06;5093244;28;20052;-65
2022/01/03 00:07:27;;;;;;;29.33;4.47;;;;;;;13.04;73.38;101369.00;5098025;28;20066;-66
2022/01/03 00:09:57;;;;;;;28.35;5.82;;;;;;;12.80;73.03;101360.16;5098116;28;20597;-66
2022/01/03 00:12:25;;;;;;;27.65;5.50;;;;;;;12.76;73.58;101374.94;5097050;28;20479;-66
2022/01/03 00:14:53;;;;;;;29.65;4.80;;;;;;;12.73;73.55;101384.66;5096498;28;20044;-66
2022/01/03 00:17:20;;;;;;;30.63;4.97;;;;;;;12.72;73.45;101377.50;5098076;28;20357;-65
2022/01/03 00:19:47;;;;;;;24.95;4.72;;;;;;;12.72;74.13;101377.50;5098112;28;20052;-66
2022/01/03 00:22:17;;;;;;;28.02;4.28;;;;;;;12.88;73.39;101389.84;5079890;28;20044;-66
2022/01/03 00:24:59;;;;;;;29.95;4.43;;;;;;;13.06;73.62;101388.88;5076339;28;20045;-65
2022/01/03 00:27:35;;;;;;;27.30;5.15;;;;;;;13.14;72.07;101382.59;5077831;28;20048;-66
2022/01/03 00:30:03;;;;;;;23.63;3.95;;;;;;;12.87;73.36;101395.66;5078600;28;20056;-66
2022/01/03 00:32:30;;;;;;;30.15;4.43;;;;;;;12.55;73.81;101399.44;5097310;28;20043;-65
2022/01/03 00:34:58;;;;;;;30.55;5.50;;;;;;;12.59;74.34;101394.13;5096502;28;20145;-66
2022/01/03 00:37:26;;;;;;;24.00;3.70;;;;;;;12.76;75.13;101397.84;5096615;28;20037;-66
2022/01/03 00:39:55;;;;;;;32.60;4.93;;;;;;;12.74;73.95;101410.34;5096217;28;20044;-66
2022/01/03 00:42:22;;;;;;;29.80;5.57;;;;;;;12.97;74.72;101404.53;5079027;28;20059;-66
2022/01/03 00:44:51;;;;;;;28.42;4.72;;;;;;;13.06;72.96;101399.94;5097638;28;20044;-67
2022/01/03 00:47:19;;;;;;;30.77;4.67;;;;;;;13.09;72.26;101404.03;5097329;28;20048;-63
2022/01/03 00:49:47;;;;;;;32.53;5.63;;;;;;;13.04;72.66;101404.16;5097585;28;20409;-64
2022/01/03 00:52:14;;;;;;;28.45;4.22;;;;;;;12.90;73.00;101408.88;5097458;28;20051;-63
2022/01/03 00:54:42;;;;;;;22.73;3.85;;;;;;;13.02;73.09;101404.44;5094744;28;20048;-63
2022/01/03 00:57:19;;;;;;;28.65;4.60;;;;;;;13.03;73.63;101402.50;5095784;28;20399;-63
2022/01/03 00:59:56;;;;;;;31.85;5.00;;;;;;;13.09;72.54;101410.34;5091278;28;20063;-63
2022/01/03 01:02:25;;;;;;;29.60;4.35;;;;;;;13.15;72.35;101402.75;5074355;28;20538;-63
2022/01/03 01:04:55;;;;;;;29.23;3.97;;;;;;;12.87;73.20;101401.19;5081414;28;20530;-64
2022/01/03 01:07:24;;;;;;;28.38;4.38;;;;;;;12.85;73.18;101401.50;5095963;28;20047;-64
2022/01/03 01:09:54;;;;;;;27.92;5.68;;;;;;;13.02;72.87;101412.75;5097787;28;20539;-65
2022/01/03 01:12:21;;;;;;;25.80;3.72;;;;;;;12.91;72.69;101408.56;5097426;28;20055;-64
2022/01/03 01:14:50;;;;;;;29.95;5.40;;;;;;;13.31;71.97;101412.31;5095750;28;20059;-65
2022/01/03 01:17:19;;;;;;;37.40;5.10;;;;;;;12.97;72.50;101412.81;5094655;28;20052;-65
2022/01/03 01:19:46;;;;;;;24.17;4.50;;;;;;;13.01;72.42;101405.56;5079170;28;20075;-65
2022/01/03 01:22:14;;;;;;;29.02;5.32;;;;;;;13.19;71.73;101407.38;5078971;28;20384;-64
2022/01/03 01:24:49;;;;;;;30.02;5.57;;;;;;;13.26;71.34;101416.03;5096967;28;20059;-64
2022/01/03 01:30:05;;;;;;;32.30;4.95;;;;;;;12.77;73.69;101407.78;5095453;28;20353;-64
2022/01/03 01:32:32;;;;;;;20.63;3.92;;;;;;;12.84;73.22;101413.72;5078296;28;20062;-64
2022/01/03 01:35:00;;;;;;;25.83;4.05;;;;;;;12.74;73.67;101411.19;5078948;28;20044;-64
2022/01/03 01:37:28;;;;;;;23.85;3.63;;;;;;;12.81;73.72;101400.50;5095616;28;20048;-64
2022/01/03 01:39:57;;;;;;;23.55;4.45;;;;;;;12.99;72.76;101399.50;5095462;28;20055;-65
2022/01/03 01:42:24;;;;;;;31.02;4.95;;;;;;;12.99;72.86;101395.94;5079068;28;20059;-65
2022/01/03 01:44:54;;;;;;;28.10;4.10;;;;;;;12.83;73.41;101401.00;5075113;28;20052;-64
2022/01/03 01:47:26;;;;;;;24.33;3.67;;;;;;;12.99;72.74;101413.34;5058764;28;20055;-64
2022/01/03 01:49:56;;;;;;;28.30;4.20;;;;;;;12.75;73.95;101406.44;5058244;28;20060;-64
2022/01/03 01:52:25;;;;;;;27.97;4.53;;;;;;;12.73;74.18;101404.00;5075300;28;20502;-65
2022/01/03 01:55:06;;;;;;;29.92;4.05;;;;;;;12.90;73.46;101387.56;5075105;28;20290;-64
2022/01/03 01:58:02;;;;;;;32.90;4.50;;;;;;;12.84;73.75;101386.06;5091563;28;20498;-64
2022/01/03 02:00:43;;;;;;;25.80;4.70;;;;;;;12.90;73.72;101381.22;5087464;28;20056;-64
2022/01/03 02:03:50;;;;;;;29.02;4.88;;;;;;;13.19;72.20;101381.66;5094899;28;20051;-65
2022/01/03 02:06:27;;;;;;;25.58;3.88;;;;;;;12.79;73.29;101379.81;5077950;28;20056;-64
2022/01/03 02:09:09;;;;;;;32.30;4.63;;;;;;;12.90;73.36;101384.78;5094964;28;20044;-64
2022/01/03 02:11:52;;;;;;;24.80;4.25;;;;;;;13.03;73.52;101388.69;5095079;28;20443;-65
2022/01/03 02:14:24;;;;;;;27.63;5.05;;;;;;;12.88;73.40;101394.53;5094852;28;20131;-64
2022/01/03 02:16:54;;;;;;;27.67;4.13;;;;;;;12.70;73.50;101401.03;5094630;28;20052;-64
2022/01/03 02:19:24;;;;;;;28.08;4.13;;;;;;;12.72;73.71;101394.09;5094619;28;20491;-65
2022/01/03 02:21:51;;;;;;;25.10;4.80;;;;;;;12.96;72.71;101399.31;5077282;28;20044;-64
2022/01/03 02:24:25;;;;;;;33.05;5.07;;;;;;;12.88;73.18;101400.06;5094454;28;20052;-65
2022/01/03 02:26:52;;;;;;;32.70;4.70;;;;;;;13.10;72.39;101392.66;5094389;28;20048;-64
2022/01/03 02:29:20;;;;;;;32.95;5.13;;;;;;;13.14;71.91;101399.19;5095261;28;20059;-63
2022/01/03 02:31:47;;;;;;;29.17;4.68;;;;;;;12.96;72.47;101404.84;5094435;28;20047;-63
2022/01/03 02:34:15;;;;;;;23.50;4.88;;;;;;;12.90;72.62;101395.84;5095823;28;20462;-64
2022/01/03 02:36:44;;;;;;;26.33;4.50;;;;;;;13.07;72.20;101411.81;5094133;28;20056;-63
2022/01/03 02:39:11;;;;;;;27.98;4.70;;;;;;;12.71;73.40;101414.53;5095610;28;20040;-63
2022/01/03 02:41:38;;;;;;;25.92;4.82;;;;;;;13.04;72.76;101416.00;5094533;28;20052;-64
2022/01/03 02:44:06;;;;;;;24.42;4.95;;;;;;;12.81;73.10;101414.34;5094394;28;20052;-64
2022/01/03 02:46:33;;;;;;;31.02;3.88;;;;;;;12.56;74.13;101411.31;5094725;28;20036;-64
2022/01/03 02:49:03;;;;;;;31.45;5.55;;;;;;;12.96;73.25;101396.56;5094259;28;20056;-64
2022/01/03 02:51:32;;;;;;;31.90;5.07;;;;;;;12.95;73.16;101404.06;5095837;28;20048;-64
2022/01/03 02:53:59;;;;;;;29.48;4.82;;;;;;;13.14;72.25;101410.25;5094130;28;20442;-64
2022/01/03 02:56:36;;;;;;;26.25;3.75;;;;;;;13.15;72.43;101414.66;5094007;28;20063;-63
2022/01/03 02:59:16;;;;;;;28.00;4.28;;;;;;;13.03;72.63;101413.56;5077530;28;20055;-64
2022/01/03 03:01:44;;;;;;;32.22;4.70;;;;;;;13.00;72.93;101408.63;5094112;28;20063;-65
2022/01/03 03:04:14;;;;;;;31.95;4.93;;;;;;;12.96;72.61;101402.91;5093915;28;20052;-64
2022/01/03 03:06:41;;;;;;;30.00;4.15;;;;;;;13.23;72.10;101389.00;5095104;28;20075;-64
2022/01/03 03:09:09;;;;;;;31.25;4.82;;;;;;;12.95;72.94;101381.94;5094181;28;20402;-63
2022/01/03 03:11:37;;;;;;;27.17;4.30;;;;;;;13.17;72.02;101376.44;5095228;28;20048;-64
2022/01/03 03:14:06;;;;;;;26.00;3.92;;;;;;;13.26;72.05;101379.25;5094080;28;20518;-64
2022/01/03 03:16:34;;;;;;;33.00;4.22;;;;;;;13.23;71.45;101372.38;5093459;28;20052;-66
2022/01/03 03:19:01;;;;;;;27.73;4.38;;;;;;;12.98;72.75;101378.53;5093733;28;20050;-63
2022/01/03 03:21:30;;;;;;;25.30;4.75;;;;;;;12.85;72.86;101378.59;5093840;28;20122;-65
2022/01/03 03:23:58;;;;;;;32.13;5.15;;;;;;;12.81;73.51;101372.03;5093657;28;20059;-65
2022/01/03 03:26:25;;;;;;;36.20;5.35;;;;;;;12.62;74.49;101376.91;5093571;28;20093;-64
2022/01/03 03:28:53;;;;;;;32.97;4.95;;;;;;;13.12;72.68;101361.91;5094057;28;20044;-63
2022/01/03 03:31:22;;;;;;;34.45;4.22;;;;;;;12.66;73.12;101373.19;5093524;28;20056;-63
2022/01/03 03:33:49;;;;;;;22.38;4.18;;;;;;;12.78;73.66;101372.69;5093612;28;20048;-63
2022/01/03 03:36:17;;;;;;;27.60;4.72;;;;;;;12.92;73.23;101371.47;5094763;28;20388;-64
2022/01/03 03:38:44;;;;;;;29.98;4.25;;;;;;;12.77;73.52;101373.78;5093221;28;20056;-64
2022/01/03 03:41:16;;;;;;;34.53;4.90;;;;;;;12.88;73.31;101373.25;5095367;28;20056;-64
2022/01/03 03:43:47;;;;;;;25.73;4.30;;;;;;;12.89;72.84;101366.56;5080725;28;20059;-66
2022/01/03 03:46:15;;;;;;;26.83;3.58;;;;;;;12.78;73.39;101356.09;5097492;28;20055;-65
2022/01/03 03:48:42;;;;;;;25.77;5.20;;;;;;;12.74;73.50;101364.19;5080832;28;20399;-64
2022/01/03 03:51:13;;;;;;;23.70;3.78;;;;;;;12.91;73.15;101361.56;5097822;28;20052;-64
2022/01/03 03:53:41;;;;;;;26.17;4.05;;;;;;;12.87;73.56;101365.25;5097558;28;20533;-64
2022/01/03 03:56:10;;;;;;;29.20;4.22;;;;;;;12.71;73.81;101362.03;5097669;28;20059;-65
2022/01/03 03:58:38;;;;;;;30.00;6.15;;;;;;;12.71;74.11;101359.25;5097176;28;20052;-64
2022/01/03 04:01:05;;;;;;;23.10;3.50;;;;;;;12.76;74.18;101355.56;5097417;28;20050;-65
2022/01/03 04:03:42;;;;;;;29.17;4.68;;;;;;;12.73;74.01;101357.00;5097305;28;20055;-64
2022/01/03 04:06:12;;;;;;;30.47;4.83;;;;;;;12.83;73.79;101354.00;5097317;28;20055;-64
2022/01/03 04:08:39;;;;;;;27.02;4.38;;;;;;;12.89;73.43;101340.88;5063724;28;20052;-63
2022/01/03 04:11:07;;;;;;;28.83;4.50;;;;;;;12.73;73.84;101337.66;5080685;28;20082;-64
2022/01/03 04:13:35;;;;;;;29.08;4.32;;;;;;;12.94;73.42;101333.28;5098439;28;20058;-65
2022/01/03 04:16:04;;;;;;;27.70;4.07;;;;;;;12.80;73.50;101331.69;5096908;28;20066;-64
2022/01/03 04:18:31;;;;;;;29.83;4.00;;;;;;;12.74;74.38;101335.72;5096860;28;20052;-64
2022/01/03 04:20:59;;;;;;;30.25;4.38;;;;;;;12.80;74.17;101334.44;5098283;28;20048;-64
2022/01/03 04:23:26;;;;;;;29.20;4.80;;;;;;;12.75;74.02;101343.69;5098295;28;20114;-64
2022/01/03 04:25:54;;;;;;;30.00;4.03;;;;;;;13.13;73.40;101333.09;5098215;28;20074;-64
2022/01/03 04:28:21;;;;;;;27.48;4.38;;;;;;;12.82;73.46;101333.03;5096960;28;20425;-64
2022/01/03 04:30:51;;;;;;;25.88;4.68;;;;;;;12.85;73.97;101326.06;5079904;28;20051;-64
2022/01/03 04:33:18;;;;;;;29.88;4.50;;;;;;;12.74;73.94;101328.25;5096835;28;20044;-65
2022/01/03 04:35:46;;;;;;;24.85;3.97;;;;;;;12.97;73.61;101331.84;5063835;28;20063;-64
2022/01/03 04:38:13;;;;;;;25.67;4.15;;;;;;;12.97;73.48;101321.56;5096337;28;20059;-65
2022/01/03 04:40:41;;;;;;;27.90;4.40;;;;;;;12.75;74.24;101321.56;5096599;28;20488;-64
2022/01/03 04:43:08;;;;;;;25.98;4.85;;;;;;;12.74;74.39;101322.72;5098055;28;20078;-65
2022/01/03 04:45:36;;;;;;;23.27;3.38;;;;;;;12.78;74.03;101307.13;5096501;28;20054;-63
2022/01/03 04:48:04;;;;;;;26.35;4.60;;;;;;;12.75;74.18;101306.94;5097598;28;20056;-64
2022/01/03 04:50:31;;;;;;;26.63;4.72;;;;;;;12.75;74.23;101309.69;5098091;28;20052;-64
2022/01/03 04:52:58;;;;;;;23.63;3.20;;;;;;;12.67;74.46;101311.28;5096682;28;20059;-64
2022/01/03 04:55:26;;;;;;;23.27;3.83;;;;;;;12.71;74.15;101317.00;5095614;28;20056;-64
2022/01/03 04:57:53;;;;;;;33.97;4.63;;;;;;;12.89;73.30;101319.56;5095273;28;20446;-64
2022/01/03 05:00:21;;;;;;;26.17;4.28;;;;;;;12.87;73.54;101313.53;5097522;28;20494;-65
2022/01/03 05:02:48;;;;;;;27.50;4.40;;;;;;;12.89;73.54;101310.47;5079283;28;20099;-64
2022/01/03 05:05:16;;;;;;;31.20;4.00;;;;;;;12.74;74.18;101316.38;5079719;28;20051;-64
2022/01/03 05:07:45;;;;;;;28.20;4.20;;;;;;;12.74;74.54;101308.91;5096692;28;20051;-64
2022/01/03 05:10:13;;;;;;;24.15;3.88;;;;;;;12.77;74.17;101301.91;5096303;28;20055;-64
2022/01/03 05:12:40;;;;;;;26.48;3.70;;;;;;;12.77;73.89;101290.84;5096325;28;20044;-65
2022/01/03 05:15:08;;;;;;;28.92;4.25;;;;;;;12.88;73.65;101289.47;5075305;28;20048;-64
2022/01/03 05:17:35;;;;;;;25.48;4.30;;;;;;;12.93;73.53;101300.41;5058691;28;20754;-64
2022/01/03 05:20:04;;;;;;;25.88;4.72;;;;;;;12.80;74.23;101299.34;5075642;28;20040;-64
2022/01/03 05:22:32;;;;;;;29.70;3.78;;;;;;;12.79;74.32;101294.13;5041911;28;20342;-63
2022/01/03 05:24:59;;;;;;;25.38;3.55;;;;;;;12.82;74.28;101294.31;5077134;28;20049;-64
2022/01/03 05:27:26;;;;;;;26.55;4.22;;;;;;;12.84;74.05;101292.06;5075470;28;20048;-64
2022/01/03 05:29:55;;;;;;;25.42;4.00;;;;;;;12.87;74.13;101294.19;5095728;28;20043;-65
2022/01/03 05:32:22;;;;;;;26.02;4.47;;;;;;;12.86;73.98;101297.28;5078157;28;20066;-65
2022/01/03 05:34:49;;;;;;;30.17;4.50;;;;;;;12.96;74.06;101297.00;5095836;28;20056;-64
2022/01/03 05:37:17;;;;;;;24.58;3.75;;;;;;;13.03;73.53;101291.88;5096800;28;20056;-64
2022/01/03 05:39:44;;;;;;;20.40;3.50;;;;;;;13.14;73.16;101288.56;5078714;28;20052;-64
2022/01/03 05:42:11;;;;;;;28.13;4.05;;;;;;;13.10;73.32;101292.25;5095670;28;20696;-64
2022/01/03 05:44:39;;;;;;;24.05;4.22;;;;;;;13.05;73.37;101301.50;5095428;28;20439;-65
2022/01/03 05:47:07;;;;;;;30.67;4.60;;;;;;;12.96;73.86;101294.25;5078714;28;20043;-64
2022/01/03 05:49:34;;;;;;;31.90;4.75;;;;;;;12.96;73.77;101297.00;5096618;28;20052;-64
2022/01/03 05:52:02;;;;;;;28.25;4.28;;;;;;;12.81;74.38;101291.88;5096919;28;20043;-65
2022/01/03 05:54:31;;;;;;;23.23;4.85;;;;;;;12.91;74.43;101286.91;5095012;28;20044;-64
2022/01/03 05:57:00;;;;;;;24.15;4.47;;;;;;;12.81;74.07;101301.00;5095219;28;20052;-64
2022/01/03 05:59:27;;;;;;;31.67;4.15;;;;;;;12.61;75.28;101308.94;5094449;28;20048;-64
2022/01/03 06:01:55;;;;;;;29.50;4.30;;;;;;;12.94;74.07;101300.09;5077768;28;20063;-64
2022/01/03 06:04:34;;;;;;;24.35;4.07;;;;;;;12.77;74.72;101301.91;5096101;28;20060;-64
2022/01/03 06:07:05;;;;;;;;;;;;;;;12.82;74.84;101305.38;5095597;28;20067;-63
2022/01/03 06:09:43;;;;;;;23.15;4.35;;;;;;;12.97;74.39;101301.41;5094773;28;19924;-64
2022/01/03 06:12:12;;;;;;;29.33;5.00;;;;;;;12.70;74.88;101293.25;5078334;28;20056;-65
2022/01/03 06:14:47;;;;;;;30.00;4.32;;;;;;;12.54;75.54;101297.50;5096150;28;20546;-64
2022/01/03 06:17:15;;;;;;;34.90;5.25;;;;;;;12.66;75.49;101293.06;5061256;28;20059;-65
2022/01/03 06:19:45;;;;;;;31.15;4.68;;;;;;;12.95;74.39;101296.22;5094539;28;20051;-65
2022/01/03 06:22:13;;;;;;;27.88;4.75;;;;;;;12.85;74.73;101293.69;5094940;28;20047;-64
2022/01/03 06:24:44;;;;;;;21.23;3.88;;;;;;;12.70;74.79;101296.00;5078360;28;20051;-65
2022/01/03 06:27:13;;;;;;;32.13;4.88;;;;;;;12.77;74.87;101294.44;5094619;28;20052;-65
2022/01/03 06:29:40;;;;;;;27.73;3.92;;;;;;;12.87;74.74;101296.13;5094280;28;20048;-65
2022/01/03 06:32:08;;;;;;;30.27;4.85;;;;;;;12.69;74.97;101289.69;5094596;28;20052;-64
2022/01/03 06:34:35;;;;;;;29.92;4.30;;;;;;;12.75;75.08;101290.34;5094763;28;20044;-65
2022/01/03 06:37:03;;;;;;;29.65;4.85;;;;;;;12.73;75.03;101287.06;5095791;28;20048;-65
2022/01/03 06:39:36;;;;;;;22.10;4.22;;;;;;;12.76;74.77;101286.47;5094186;28;20066;-65
2022/01/03 06:42:04;;;;;;;25.63;4.70;;;;;;;12.79;74.35;101270.06;5094511;28;20051;-64
2022/01/03 06:44:31;;;;;;;31.95;4.55;;;;;;;12.83;74.77;101273.81;5094122;28;20040;-64
2022/01/03 06:47:00;;;;;;;33.30;5.10;;;;;;;12.96;74.02;101269.34;5094289;28;20063;-66
2022/01/03 06:49:27;;;;;;;27.88;4.38;;;;;;;12.78;74.61;101264.84;5094147;28;20052;-64
2022/01/03 06:51:54;;;;;;;26.35;4.18;;;;;;;12.72;74.80;101272.47;5093688;28;20040;-64
2022/01/03 06:54:21;;;;;;;28.38;4.40;;;;;;;12.61;75.36;101262.78;5095279;28;20067;-64
2022/01/03 06:56:55;;;;;;;34.67;6.13;;;;;;;12.67;75.58;101266.22;5093761;28;20058;-65
2022/01/03 06:59:22;;;;;;;31.73;4.95;;;;;;;12.63;75.42;101268.81;5093872;28;20060;-64
2022/01/03 07:01:51;;;;;;;27.30;4.30;;;;;;;12.67;75.74;101278.13;5094112;28;20048;-64
2022/01/03 07:04:18;;;;;;;29.80;4.97;;;;;;;12.75;75.48;101280.13;5079335;28;20058;-65
2022/01/03 07:06:46;;;;;;;29.67;5.10;;;;;;;12.85;74.78;101263.25;5094778;28;20055;-64
2022/01/03 07:09:13;;;;;;;28.90;4.43;;;;;;;12.65;75.57;101260.19;5095147;28;20056;-64
2022/01/03 07:11:40;;;;;;;33.47;4.35;;;;;;;12.58;75.57;101249.59;5095665;28;20044;-65
2022/01/03 07:19:37;;;;;;;36.30;5.45;;;;;;;12.77;75.60;101247.44;5082622;28;20052;-65
2022/01/03 07:22:05;;;;;;;29.20;5.03;;;;;;;12.87;74.95;101244.41;5093287;28;20051;-64
2022/01/03 07:24:33;;;;;;;28.85;4.18;;;;;;;13.01;74.42;101239.63;5090916;28;20051;-64
2022/01/03 07:27:05;;;;;;;35.17;4.97;;;;;;;12.76;75.04;101245.81;5089091;28;20045;-65
2022/01/03 07:29:33;;;;;;;28.75;4.88;;;;;;;12.80;75.42;101240.47;5093457;28;20597;-65
2022/01/03 07:32:00;;;;;;;40.08;5.35;;;;;;;12.76;75.51;101245.00;5093673;28;20044;-66
2022/01/03 07:34:28;;;;;;;30.08;4.53;;;;;;;12.86;75.06;101244.75;5094563;28;20059;-66
2022/01/03 07:36:56;;;;;;;30.95;4.43;;;;;;;12.60;76.00;101250.09;5095057;28;20056;-65
2022/01/03 07:39:23;;;;;;;30.77;4.32;;;;;;;12.72;75.86;101244.81;5093963;28;20052;-66
2022/01/03 07:41:51;;;;;;;28.25;4.57;;;;;;;12.71;75.61;101239.59;5094953;28;20406;-64
2022/01/03 07:44:18;;;;;;;36.20;6.32;;;;;;;13.09;74.92;101232.56;5093197;28;20055;-65
2022/01/03 07:46:46;;;;;;;27.90;5.93;;;;;;;13.03;73.97;101242.94;5091401;28;20070;-65
2022/01/03 07:49:13;;;;;;;23.80;4.18;;;;;;;13.07;74.13;101245.88;5076091;28;20068;-65
2022/01/03 07:51:40;;;;;;;27.30;5.15;;;;;;;12.77;74.99;101224.50;5094046;28;20044;-64
2022/01/03 07:54:07;;;;;;;35.92;6.30;;;;;;;12.59;76.07;101223.56;5094547;28;20063;-66
2022/01/03 07:56:35;;;;;;;26.83;4.47;;;;;;;12.61;76.15;101231.53;5093212;28;20056;-65
2022/01/03 07:59:02;;;;;;;31.88;5.00;;;;;;;12.72;76.08;101231.00;5075487;28;20064;-68
2022/01/03 08:01:29;;;;;;;31.05;4.82;;;;;;;12.62;76.50;101236.78;5092861;28;20407;-64
2022/01/03 08:03:57;;;;;;;38.85;5.53;;;;;;;12.80;75.94;101233.00;5094643;28;20056;-66
2022/01/03 08:06:45;;;;;;;26.05;4.38;;;;;;;12.94;75.26;101224.59;5087837;28;20703;-65
2022/01/03 08:09:12;;;;;;;32.58;6.03;;;;;;;12.96;74.92;101225.09;5087901;28;20060;-65
2022/01/03 08:11:40;;;;;;;31.38;7.75;;;;;;;13.00;74.95;101218.66;5094385;28;20044;-65
2022/01/03 08:14:07;;;;;;;45.45;8.52;;;;;;;12.95;74.92;101216.03;5094697;28;20051;-65
2022/01/03 08:16:35;;;;;;;33.38;5.40;;;;;;;12.64;75.96;101214.34;5095360;28;20048;-65
2022/01/03 08:19:02;;;;;;;36.95;5.95;;;;;;;12.70;76.32;101218.59;5092863;28;20056;-66
2022/01/03 08:21:29;;;;;;;32.47;4.93;;;;;;;12.88;75.85;101220.34;5094305;28;20048;-65
2022/01/03 08:23:57;;;;;;;34.40;5.18;;;;;;;12.69;76.31;101217.00;5094283;28;20051;-65
2022/01/03 08:26:24;;;;;;;31.02;5.03;;;;;;;12.66;76.46;101210.13;5094335;28;20130;-66
2022/01/03 08:28:52;;;;;;;31.77;5.20;;;;;;;12.64;76.67;101209.63;5097882;28;20040;-66
2022/01/03 08:31:22;;;;;;;31.52;5.10;;;;;;;12.78;76.47;101210.38;5098266;28;20059;-65
2022/01/03 08:33:49;;;;;;;34.40;5.70;;;;;;;12.81;76.01;101207.00;5098786;28;20044;-65
2022/01/03 08:36:17;;;;;;;21.95;4.50;;;;;;;12.92;76.32;101210.31;5098390;28;20056;-65
2022/01/03 08:38:44;;;;;;;33.22;4.63;;;;;;;13.04;75.89;101214.13;5097898;28;20059;-65
2022/01/03 08:41:11;;;;;;;26.20;4.05;;;;;;;12.76;76.45;101203.53;5098605;28;20048;-69
2022/01/03 08:43:38;;;;;;;31.95;4.90;;;;;;;12.83;76.14;101210.22;5098161;28;20048;-65
2022/01/03 08:46:06;;;;;;;27.40;4.72;;;;;;;12.92;76.19;101211.09;5096890;28;20052;-66
2022/01/03 08:48:34;;;;;;;34.08;4.63;;;;;;;12.82;76.61;101213.31;5097717;28;20060;-67
2022/01/03 08:51:01;;;;;;;35.22;7.45;;;;;;;13.08;75.89;101209.59;5098604;28;20414;-65
2022/01/03 08:53:32;;;;;;;44.28;14.05;;;;;;;12.95;76.35;101198.59;5098238;28;20044;-65
2022/01/03 08:56:00;;;;;;;30.58;5.10;;;;;;;12.88;76.65;101190.78;5097870;28;20047;-65
2022/01/03 08:58:28;;;;;;;43.00;6.00;;;;;;;12.90;76.57;101191.25;5097657;28;20063;-65
2022/01/03 09:00:55;;;;;;;31.17;4.60;;;;;;;12.88;76.63;101190.78;5097844;28;20168;-65
2022/01/03 09:03:23;;;;;;;28.70;4.25;;;;;;;13.01;76.40;101191.78;5097606;28;20044;-65
2022/01/03 09:05:53;;;;;;;26.90;4.80;;;;;;;13.04;76.29;101194.75;5097962;28;20157;-65
2022/01/03 09:08:22;;;;;;;26.40;4.70;;;;;;;12.93;76.61;101193.41;5112423;28;20607;-66
2022/01/03 09:10:50;;;;;;;34.90;5.45;;;;;;;12.93;76.39;101182.34;5118125;28;20060;-65
2022/01/03 09:13:20;;;;;;;29.88;4.57;;;;;;;12.85;76.87;101183.09;5116463;28;20052;-65
2022/01/03 09:15:48;;;;;;;29.33;4.43;;;;;;;12.91;77.28;101192.91;5117984;28;20054;-65
2022/01/03 09:18:22;;;;;;;34.88;5.07;;;;;;;12.97;76.80;101194.38;5117669;28;20058;-65
2022/01/03 09:20:49;;;;;;;35.35;4.60;;;;;;;12.91;76.93;101195.66;5116591;28;20054;-65
2022/01/03 09:23:21;;;;;;;28.83;5.95;;;;;;;12.89;77.12;101186.03;5099605;28;20522;-65
2022/01/03 09:28:56;;;;;;;34.10;4.18;;;;;;;12.92;77.17;101200.03;5117706;28;20062;-65
2022/01/03 09:31:35;;;;;;;31.38;4.95;;;;;;;12.93;77.04;101196.16;5121272;28;20051;-66
2022/01/03 09:34:04;;;;;;;26.45;5.03;;;;;;;13.08;76.50;101190.25;5099634;28;20052;-66
2022/01/03 09:36:32;;;;;;;31.48;4.90;;;;;;;13.12;76.42;101187.66;5118108;28;20047;-66
2022/01/03 09:39:01;;;;;;;30.35;4.45;;;;;;;12.90;77.18;101182.94;5116505;28;20055;-65
2022/01/03 09:41:28;;;;;;;29.13;4.45;;;;;;;13.16;76.48;101177.59;5116704;28;20066;-66
2022/01/03 09:44:00;;;;;;;28.90;4.88;;;;;;;13.02;76.71;101180.44;5117525;28;20051;-64
2022/01/03 09:46:38;;;;;;;33.47;4.68;;;;;;;13.12;76.94;101182.13;5117605;28;20039;-65
2022/01/03 09:49:07;;;;;;;36.30;6.28;;;;;;;13.32;76.25;101189.84;5115761;28;20059;-65
2022/01/03 09:51:35;;;;;;;26.13;4.57;;;;;;;13.40;75.25;101181.59;5117409;28;20454;-67
2022/01/03 09:54:05;;;;;;;34.53;6.72;;;;;;;13.11;76.28;101194.34;5117303;28;20062;-64
2022/01/03 09:56:33;;;;;;;;;;;;;;;13.09;76.72;101186.31;5090320;28;20049;-65
2022/01/03 09:59:01;;;;;;;33.60;4.57;;;;;;;12.93;77.31;101195.34;5088367;28;19920;-65
2022/01/03 10:01:32;;;;;;;37.60;5.18;;;;;;;12.99;76.92;101178.28;5096508;28;20051;-65
2022/01/03 10:04:01;;;;;;;29.58;5.15;;;;;;;13.01;77.41;101178.78;5096426;28;20055;-65
2022/01/03 10:06:29;;;;;;;30.17;4.85;;;;;;;13.13;76.47;101173.50;5096606;28;20411;-65
2022/01/03 10:08:56;;;;;;;28.00;5.10;;;;;;;13.04;76.86;101169.88;5096174;28;20059;-65
2022/01/03 10:11:24;;;;;;;37.03;8.27;;;;;;;13.00;76.85;101168.88;5096267;28;20184;-65
2022/01/03 10:13:51;;;;;;;34.03;7.57;;;;;;;13.26;76.13;101172.59;5096504;28;20048;-65
2022/01/03 10:16:19;;;;;;;24.38;4.93;;;;;;;13.32;75.93;101185.13;5109928;28;20092;-66
2022/01/03 10:19:06;;;;;;;34.53;6.47;;;;;;;13.21;76.36;101174.69;5115384;28;20039;-65
2022/01/03 10:21:39;;;;;;;28.52;5.50;;;;;;;13.16;76.31;101175.63;5116587;28;20059;-64
2022/01/03 10:24:08;;;;;;;35.60;4.47;;;;;;;13.13;76.41;101165.19;5116603;28;20047;-65
2022/01/03 10:26:37;;;;;;;27.67;3.47;;;;;;;13.05;76.86;101162.41;5116764;28;20051;-65
2022/01/03 10:29:11;;;;;;;24.50;4.18;;;;;;;13.17;76.99;101157.91;5115191;28;20059;-66
2022/01/03 10:31:40;;;;;;;33.30;6.00;;;;;;;13.32;75.82;101149.16;5114153;28;20534;-65
2022/01/03 10:34:11;;;;;;;31.55;5.25;;;;;;;12.98;76.23;101149.00;5116412;28;20043;-65
2022/01/03 10:36:42;;;;;;;35.53;7.13;;;;;;;12.99;77.50;101141.53;5116308;28;20052;-66
2022/01/03 10:39:12;;;;;;;27.13;4.80;;;;;;;13.09;76.20;101139.31;5116606;28;20066;-65
2022/01/03 10:41:40;;;;;;;28.25;4.75;;;;;;;13.23;75.72;101134.47;5116590;28;20051;-66
2022/01/03 10:44:08;;;;;;;32.72;7.38;;;;;;;13.12;76.53;101132.34;5116728;28;20051;-66
2022/01/03 10:46:37;;;;;;;27.42;5.00;;;;;;;13.39;76.03;101121.84;5099028;28;20047;-65
2022/01/03 10:49:21;;;;;;;30.52;5.30;;;;;;;13.42;75.30;101123.16;5113679;28;20066;-66
2022/01/03 10:51:48;;;;;;;35.13;5.97;;;;;;;13.45;75.16;101115.03;5116287;28;20051;-66
2022/01/03 10:54:18;;;;;;;28.02;5.50;;;;;;;13.57;73.99;101115.19;5115980;27;20070;-66
2022/01/03 10:56:48;;;;;;;26.58;4.55;;;;;;;13.59;75.38;101103.81;5085422;28;20079;-65
2022/01/03 10:59:15;;;;;;;;;;;;;;;13.32;75.52;101109.59;5075418;28;20111;-66
2022/01/03 11:01:46;;;;;;;29.60;4.35;;;;;;;13.53;75.36;101103.13;5074894;28;19921;-66
2022/01/03 11:04:31;;;;;;;24.38;4.00;;;;;;;13.56;74.70;101101.69;5095369;28;20051;-66
2022/01/03 11:13:13;;;;;;;28.23;5.32;;;;;;;13.63;74.18;101076.28;5095445;28;20059;-67
2022/01/03 11:15:43;;;;;;;31.45;6.15;;;;;;;13.98;73.13;101077.91;5095344;28;20059;-65
2022/01/03 11:18:16;;;;;;;33.38;5.53;;;;;;;13.87;73.08;101082.16;5094015;28;20071;-67
2022/01/03 11:20:45;;;;;;;24.45;4.53;;;;;;;13.75;73.30;101076.44;5095371;28;20052;-65
2022/01/03 11:23:20;;;;;;;34.35;7.55;;;;;;;14.11;72.34;101071.38;5096188;28;20047;-67
2022/01/03 11:25:49;;;;;;;23.45;5.18;;;;;;;13.95;72.13;101070.25;5095359;28;20044;-66
2022/01/03 11:28:17;;;;;;;25.65;4.05;;;;;;;13.97;72.39;101049.41;5094197;28;20063;-66
2022/01/03 11:30:45;;;;;;;27.45;4.53;;;;;;;13.77;73.10;101054.78;5094890;28;20063;-66
2022/01/03 11:33:15;;;;;;;28.38;4.50;;;;;;;13.77;74.08;101050.09;5093687;28;20044;-66
2022/01/03 11:35:50;;;;;;;31.92;4.88;;;;;;;13.87;73.44;101044.19;5095231;28;20052;-66
2022/01/03 11:38:21;;;;;;;34.90;10.00;;;;;;;13.88;73.53;101039.50;5095358;28;20055;-66
2022/01/03 11:40:49;;;;;;;123.57;49.00;;;;;;;13.65;73.90;101041.59;5095250;28;20052;-66
2022/01/03 11:43:17;;;;;;;48.22;21.40;;;;;;;13.67;74.35;101039.31;5092848;28;20052;-66